createdAt,value
2017-11-24T00:01:34.056Z,9.67
2017-11-24T00:04:02.559Z,8.97
2017-11-24T00:06:30.396Z,7.33
2017-11-24T00:08:58.746Z,6.30
2017-11-24T00:11:26.308Z,5.83
2017-11-24T00:13:54.370Z,8.63
2017-11-24T00:16:22.120Z,7.87
2017-11-24T00:18:50.937Z,9.37
2017-11-24T00:21:19.416Z,7.60
2017-11-24T00:23:48.371Z,10.63
2017-11-24T00:26:16.748Z,8.40
2017-11-24T00:28:44.841Z,8.27
2017-11-24T00:31:12.703Z,8.77
2017-11-24T00:33:40.460Z,9.23
2017-11-24T00:36:08.751Z,8.97
2017-11-24T00:38:36.669Z,8.47
2017-11-24T00:41:05.045Z,6.63
2017-11-24T00:43:35.831Z,10.53
2017-11-24T00:46:04.531Z,7.17
2017-11-24T00:48:32.947Z,9.40
2017-11-24T00:51:00.723Z,9.13
2017-11-24T00:53:29.295Z,7.70
2017-11-24T00:55:57.823Z,8.50
2017-11-24T00:58:26.225Z,6.60
2017-11-24T01:00:54.069Z,15.30
2017-11-24T01:03:22.244Z,16.20
2017-11-24T01:05:50.898Z,10.63
2017-11-24T01:08:19.369Z,6.43
2017-11-24T01:10:47.500Z,8.43
2017-11-24T01:13:15.863Z,8.37
2017-11-24T01:15:44.232Z,7.73
2017-11-24T01:18:13.175Z,7.70
2017-11-24T01:20:40.896Z,6.23
2017-11-24T01:23:08.777Z,5.30
2017-11-24T01:25:36.524Z,11.57
2017-11-24T01:28:04.450Z,6.73
2017-11-24T01:30:32.529Z,8.80
2017-11-24T01:33:00.869Z,5.60
2017-11-24T01:35:28.507Z,5.47
2017-11-24T01:37:56.212Z,7.00
2017-11-24T01:40:23.781Z,5.83
2017-11-24T01:42:51.392Z,6.03
2017-11-24T01:45:19.093Z,7.93
2017-11-24T01:47:46.670Z,10.13
2017-11-24T01:50:14.272Z,5.93
2017-11-24T01:52:41.840Z,5.20
2017-11-24T01:55:09.459Z,5.70
2017-11-24T01:57:37.307Z,7.63
2017-11-24T02:00:04.881Z,6.50
2017-11-24T02:02:32.472Z,5.93
2017-11-24T02:05:00.055Z,4.77
2017-11-24T02:07:27.752Z,6.93
2017-11-24T02:09:55.350Z,5.17
2017-11-24T02:12:22.958Z,4.93
2017-11-24T02:14:50.535Z,5.23
2017-11-24T02:17:18.407Z,5.80
2017-11-24T02:19:46.165Z,5.33
2017-11-24T02:22:13.726Z,5.30
2017-11-24T02:24:41.361Z,6.13
2017-11-24T02:27:08.924Z,8.13
2017-11-24T02:29:36.716Z,11.50
2017-11-24T02:32:04.374Z,7.77
2017-11-24T02:34:32.738Z,8.07
2017-11-24T02:37:00.338Z,7.40
2017-11-24T02:39:28.077Z,8.17
2017-11-24T02:41:55.676Z,12.83
2017-11-24T02:44:23.494Z,8.73
2017-11-24T02:46:52.701Z,8.77
2017-11-24T02:49:20.257Z,5.70
2017-11-24T02:51:47.827Z,6.57
2017-11-24T02:54:15.620Z,7.03
2017-11-24T02:56:43.233Z,5.33
2017-11-24T02:59:10.801Z,9.90
2017-11-24T03:01:38.430Z,7.70
2017-11-24T03:04:06.044Z,7.33
2017-11-24T03:06:33.624Z,6.97
2017-11-24T03:09:01.367Z,9.90
2017-11-24T03:11:28.996Z,7.80
2017-11-24T03:13:56.561Z,8.13
2017-11-24T03:16:24.266Z,7.53
2017-11-24T03:18:52.605Z,8.60
2017-11-24T03:21:20.212Z,7.37
2017-11-24T03:23:48.340Z,11.87
2017-11-24T03:26:16.049Z,8.47
2017-11-24T03:28:43.651Z,5.70
2017-11-24T03:31:11.683Z,6.73
2017-11-24T03:33:39.280Z,8.90
2017-11-24T03:36:06.840Z,8.03
2017-11-24T03:38:34.468Z,6.40
2017-11-24T03:41:02.063Z,7.57
2017-11-24T03:43:30.166Z,5.90
2017-11-24T03:45:57.823Z,6.43
2017-11-24T03:48:25.384Z,7.20
2017-11-24T03:50:53.158Z,7.87
2017-11-24T03:53:20.732Z,6.83
2017-11-24T03:55:49.064Z,6.83
2017-11-24T03:58:16.619Z,5.60
2017-11-24T04:00:44.232Z,5.57
2017-11-24T04:03:12.111Z,6.37
2017-11-24T04:05:40.716Z,8.10
2017-11-24T04:08:08.308Z,6.47
2017-11-24T04:10:35.871Z,7.80
2017-11-24T04:13:03.908Z,6.90
2017-11-24T04:15:31.579Z,7.13
2017-11-24T04:17:59.180Z,8.93
2017-11-24T04:20:27.661Z,7.20
2017-11-24T04:22:55.655Z,8.00
2017-11-24T04:25:23.235Z,7.87
2017-11-24T04:27:50.835Z,6.63
2017-11-24T04:30:18.399Z,8.77
2017-11-24T04:32:47.468Z,10.30
2017-11-24T04:35:15.035Z,7.80
2017-11-24T04:37:42.892Z,8.73
2017-11-24T04:40:10.503Z,7.60
2017-11-24T04:42:38.095Z,9.17
2017-11-24T04:45:05.660Z,7.23
2017-11-24T04:47:33.267Z,7.40
2017-11-24T04:50:00.843Z,7.47
2017-11-24T04:52:28.524Z,8.30
2017-11-24T04:54:56.120Z,8.00
2017-11-24T04:57:23.708Z,8.73
2017-11-24T04:59:52.159Z,7.73
2017-11-24T05:02:19.746Z,7.43
2017-11-24T05:04:47.297Z,8.63
2017-11-24T05:07:15.094Z,9.67
2017-11-24T05:09:42.658Z,10.33
2017-11-24T05:12:11.028Z,7.27
2017-11-24T05:14:38.617Z,7.03
2017-11-24T05:17:06.320Z,7.00
2017-11-24T05:19:33.926Z,10.13
2017-11-24T05:22:02.294Z,7.37
2017-11-24T05:24:30.671Z,8.47
2017-11-24T05:26:58.326Z,6.83
2017-11-24T05:29:25.890Z,7.83
2017-11-24T05:31:54.270Z,7.43
2017-11-24T05:34:21.837Z,6.80
2017-11-24T05:36:49.411Z,7.63
2017-11-24T05:39:17.746Z,10.53
2017-11-24T05:41:46.049Z,6.83
2017-11-24T05:44:13.695Z,8.17
2017-11-24T05:46:41.269Z,6.60
2017-11-24T05:49:18.929Z,9.40
2017-11-24T05:51:46.578Z,12.33
2017-11-24T05:54:14.205Z,7.57
2017-11-24T05:56:41.827Z,12.13
2017-11-24T05:59:09.450Z,8.07
2017-11-24T06:01:37.101Z,8.83
2017-11-24T06:04:05.553Z,6.57
2017-11-24T06:06:33.211Z,7.80
2017-11-24T06:09:00.829Z,6.67
2017-11-24T06:11:28.456Z,9.87
2017-11-24T06:13:56.061Z,7.40
2017-11-24T06:16:23.684Z,7.10
2017-11-24T06:18:52.020Z,8.03
2017-11-24T06:21:19.595Z,8.57
2017-11-24T06:23:47.190Z,8.37
2017-11-24T06:26:14.794Z,7.47
2017-11-24T06:28:42.374Z,9.97
2017-11-24T06:31:09.989Z,7.70
2017-11-24T06:33:37.613Z,9.53
2017-11-24T06:36:06.540Z,8.07
2017-11-24T06:38:38.569Z,10.73
2017-11-24T06:41:06.205Z,11.07
2017-11-24T06:43:33.825Z,8.23
2017-11-24T06:46:01.542Z,8.37
2017-11-24T06:48:29.943Z,7.50
2017-11-24T06:50:57.691Z,8.17
2017-11-24T06:53:25.298Z,10.47
2017-11-24T06:55:53.018Z,7.47
2017-11-24T06:58:20.682Z,8.57
2017-11-24T07:00:48.362Z,8.13
2017-11-24T07:03:15.991Z,13.40
2017-11-24T07:05:43.622Z,8.97
2017-11-24T07:08:11.809Z,7.27
2017-11-24T07:10:39.380Z,9.43
2017-11-24T07:13:07.002Z,10.17
2017-11-24T07:15:34.749Z,6.70
2017-11-24T07:18:03.205Z,7.50
2017-11-24T07:20:31.549Z,7.00
2017-11-24T07:22:59.148Z,8.97
2017-11-24T07:25:26.971Z,7.50
2017-11-24T07:27:55.382Z,8.23
2017-11-24T07:30:23.016Z,7.80
2017-11-24T07:32:50.572Z,8.20
2017-11-24T07:35:18.172Z,7.57
2017-11-24T07:37:47.402Z,7.37
2017-11-24T07:40:15.780Z,9.10
2017-11-24T07:42:43.376Z,7.13
2017-11-24T07:45:10.997Z,8.53
2017-11-24T07:47:38.590Z,7.73
2017-11-24T07:50:06.205Z,8.73
2017-11-24T07:52:34.436Z,8.07
2017-11-24T07:55:02.053Z,7.13
2017-11-24T07:57:29.649Z,7.03
2017-11-24T07:59:57.315Z,7.07
2017-11-24T08:02:24.917Z,6.80
2017-11-24T08:04:52.597Z,6.70
2017-11-24T08:07:20.180Z,8.00
2017-11-24T08:09:47.795Z,11.43
2017-11-24T08:12:15.555Z,10.47
2017-11-24T08:14:43.136Z,8.07
2017-11-24T08:17:10.716Z,6.80
2017-11-24T08:19:38.286Z,5.93
2017-11-24T08:22:06.247Z,8.63
2017-11-24T08:24:33.870Z,6.90
2017-11-24T08:27:01.498Z,7.37
2017-11-24T08:29:29.097Z,7.13
2017-11-24T08:31:56.819Z,7.07
2017-11-24T08:34:24.613Z,7.00
2017-11-24T08:36:52.179Z,6.77
2017-11-24T08:39:19.729Z,8.23
2017-11-24T08:41:47.299Z,8.83
2017-11-24T08:44:14.966Z,5.97
2017-11-24T08:46:48.245Z,7.50
2017-11-24T08:49:21.405Z,6.47
2017-11-24T08:51:49.012Z,9.30
2017-11-24T08:54:16.651Z,7.13
2017-11-24T08:56:44.300Z,9.60
2017-11-24T08:59:12.367Z,6.73
2017-11-24T09:01:40.179Z,7.13
2017-11-24T09:04:07.847Z,7.00
2017-11-24T09:06:35.418Z,7.50
2017-11-24T09:09:03.035Z,7.63
2017-11-24T09:11:30.691Z,7.80
2017-11-24T09:13:58.457Z,7.60
2017-11-24T09:16:26.128Z,7.63
2017-11-24T09:18:53.806Z,6.83
2017-11-24T09:21:21.451Z,6.43
2017-11-24T09:23:49.074Z,9.70
2017-11-24T09:26:17.076Z,7.40
2017-11-24T09:28:44.660Z,6.47
2017-11-24T09:31:12.503Z,8.97
2017-11-24T09:33:40.124Z,8.13
2017-11-24T09:36:07.826Z,8.77
2017-11-24T09:38:35.513Z,5.33
2017-11-24T09:41:03.087Z,6.30
2017-11-24T09:43:30.681Z,5.83
2017-11-24T09:45:58.299Z,7.40
2017-11-24T09:48:25.867Z,6.47
2017-11-24T09:50:53.458Z,7.80
2017-11-24T09:53:21.046Z,5.37
2017-11-24T09:55:48.656Z,7.77
2017-11-24T09:58:17.028Z,7.63
2017-11-24T10:00:44.616Z,6.17
2017-11-24T10:03:12.279Z,8.37
2017-11-24T10:05:39.971Z,5.90
2017-11-24T10:08:07.596Z,8.00
2017-11-24T10:10:35.245Z,5.40
2017-11-24T10:13:02.959Z,6.97
2017-11-24T10:15:30.689Z,5.27
2017-11-24T10:17:58.258Z,9.23
2017-11-24T10:20:25.949Z,7.70
2017-11-24T10:22:53.513Z,7.43
2017-11-24T10:25:21.114Z,7.00
2017-11-24T10:27:49.494Z,6.67
2017-11-24T10:30:17.081Z,6.27
2017-11-24T10:32:44.694Z,6.23
2017-11-24T10:35:12.376Z,6.60
2017-11-24T10:37:41.510Z,7.20
2017-11-24T10:40:10.143Z,6.27
2017-11-24T10:42:38.285Z,7.27
2017-11-24T10:45:06.415Z,5.00
2017-11-24T10:47:34.940Z,6.87
2017-11-24T10:50:03.544Z,7.20
2017-11-24T10:52:32.214Z,5.63
2017-11-24T10:55:00.714Z,10.73
2017-11-24T10:57:29.036Z,9.47
2017-11-24T10:59:56.734Z,6.03
2017-11-24T11:02:25.416Z,7.63
2017-11-24T11:04:54.193Z,7.00
2017-11-24T11:07:22.019Z,6.60
2017-11-24T11:09:50.732Z,6.07
2017-11-24T11:12:18.660Z,6.62
2017-11-24T11:14:46.477Z,6.67
2017-11-24T11:17:14.046Z,7.53
2017-11-24T11:19:41.606Z,9.80
2017-11-24T11:22:09.234Z,6.57
2017-11-24T11:24:37.564Z,4.93
2017-11-24T11:27:05.213Z,6.50
2017-11-24T11:29:32.978Z,6.90
2017-11-24T11:32:00.914Z,6.17
2017-11-24T11:34:29.081Z,7.00
2017-11-24T11:36:56.656Z,6.53
2017-11-24T11:39:24.222Z,6.07
2017-11-24T11:41:51.857Z,5.40
2017-11-24T11:44:20.183Z,4.40
2017-11-24T11:46:47.855Z,6.33
2017-11-24T11:49:15.781Z,5.57
2017-11-24T11:51:43.343Z,6.10
2017-11-24T11:54:11.513Z,13.13
2017-11-24T11:56:39.082Z,9.37
2017-11-24T11:59:06.637Z,6.10
2017-11-24T12:01:34.967Z,6.37
2017-11-24T12:04:02.571Z,5.77
2017-11-24T12:06:30.230Z,8.90
2017-11-24T12:08:58.512Z,6.00
2017-11-24T12:11:26.259Z,7.60
2017-11-24T12:13:54.675Z,5.40
2017-11-24T12:16:22.297Z,5.83
2017-11-24T12:18:49.872Z,8.37
2017-11-24T12:21:17.484Z,6.43
2017-11-24T12:23:45.047Z,7.23
2017-11-24T12:26:12.794Z,10.37
2017-11-24T12:28:40.368Z,14.40
2017-11-24T12:31:07.981Z,11.90
2017-11-24T12:33:36.402Z,9.57
2017-11-24T12:36:04.073Z,7.57
2017-11-24T12:38:31.637Z,6.87
2017-11-24T12:40:59.273Z,11.63
2017-11-24T12:43:26.863Z,5.83
2017-11-24T12:45:54.447Z,6.50
2017-11-24T12:48:22.978Z,6.30
2017-11-24T12:50:50.809Z,6.87
2017-11-24T12:53:18.521Z,10.97
2017-11-24T12:55:46.132Z,7.83
2017-11-24T12:58:14.486Z,8.17
2017-11-24T13:00:42.108Z,9.20
2017-11-24T13:03:09.754Z,12.10
2017-11-24T13:05:37.396Z,10.37
2017-11-24T13:08:05.604Z,8.07
2017-11-24T13:10:33.206Z,8.67
2017-11-24T13:13:00.778Z,7.97
2017-11-24T13:15:29.192Z,6.03
2017-11-24T13:17:56.800Z,7.73
2017-11-24T13:20:24.482Z,6.70
2017-11-24T13:22:52.074Z,7.53
2017-11-24T13:25:19.709Z,9.80
2017-11-24T13:27:47.473Z,8.33
2017-11-24T13:30:16.002Z,14.13
2017-11-24T13:32:43.670Z,7.43
2017-11-24T13:35:12.407Z,5.87
2017-11-24T13:37:40.785Z,8.67
2017-11-24T13:40:08.343Z,21.33
2017-11-24T13:42:36.615Z,8.97
2017-11-24T13:45:04.255Z,8.60
2017-11-24T13:47:31.896Z,6.10
2017-11-24T13:50:01.066Z,7.23
2017-11-24T13:52:28.645Z,6.87
2017-11-24T13:54:57.037Z,7.97
2017-11-24T13:57:25.007Z,7.60
2017-11-24T13:59:53.043Z,7.40
2017-11-24T14:02:25.342Z,9.97
2017-11-24T14:04:53.699Z,9.57
2017-11-24T14:07:22.116Z,11.47
2017-11-24T14:09:49.672Z,11.20
2017-11-24T14:12:17.253Z,12.27
2017-11-24T14:14:44.812Z,11.03
2017-11-24T14:17:12.457Z,14.60
2017-11-24T14:19:40.048Z,9.63
2017-11-24T14:22:08.233Z,8.60
2017-11-24T14:24:36.572Z,14.73
2017-11-24T14:27:04.176Z,12.97
2017-11-24T14:29:32.526Z,10.20
2017-11-24T14:32:00.114Z,11.60
2017-11-24T14:34:28.995Z,9.80
2017-11-24T14:36:56.610Z,9.23
2017-11-24T14:39:24.275Z,9.23
2017-11-24T14:41:51.910Z,8.80
2017-11-24T14:44:19.926Z,11.33
2017-11-24T14:46:47.775Z,12.77
2017-11-24T14:49:16.904Z,7.77
2017-11-24T14:51:45.968Z,12.73
2017-11-24T14:54:15.041Z,10.50
2017-11-24T14:56:43.523Z,9.63
2017-11-24T14:59:12.129Z,8.63
2017-11-24T15:01:41.102Z,8.90
2017-11-24T15:04:10.592Z,8.70
2017-11-24T15:06:41.334Z,11.00
2017-11-24T15:09:09.781Z,10.53
2017-11-24T15:11:37.444Z,9.60
2017-11-24T15:14:05.781Z,9.00
2017-11-24T15:16:33.545Z,44.43
2017-11-24T15:19:01.925Z,10.87
2017-11-24T15:21:30.918Z,9.10
2017-11-24T15:23:59.112Z,8.20
2017-11-24T15:26:26.897Z,8.63
2017-11-24T15:28:55.549Z,9.93
2017-11-24T15:31:23.138Z,11.97
2017-11-24T15:33:50.787Z,11.47
2017-11-24T15:36:18.415Z,14.70
2017-11-24T15:38:46.111Z,11.17
2017-11-24T15:41:13.725Z,10.67
2017-11-24T15:43:41.373Z,11.40
2017-11-24T15:46:09.081Z,8.63
2017-11-24T15:48:36.648Z,11.90
2017-11-24T15:51:04.254Z,11.60
2017-11-24T15:53:32.069Z,13.07
2017-11-24T15:55:59.665Z,11.80
2017-11-24T15:58:27.421Z,11.60
2017-11-24T16:00:55.013Z,9.97
2017-11-24T16:03:23.149Z,12.53
2017-11-24T16:05:50.711Z,10.23
2017-11-24T16:08:18.347Z,12.37
2017-11-24T16:10:45.968Z,12.13
2017-11-24T16:13:13.588Z,10.83
2017-11-24T16:15:42.134Z,8.30
2017-11-24T16:18:09.847Z,8.70
2017-11-24T16:20:37.421Z,10.10
2017-11-24T16:23:04.980Z,9.10
2017-11-24T16:25:32.688Z,10.90
2017-11-24T16:28:00.467Z,36.37
2017-11-24T16:30:28.230Z,11.80
2017-11-24T16:32:55.871Z,10.20
2017-11-24T16:35:23.928Z,8.80
2017-11-24T16:37:52.946Z,9.50
2017-11-24T16:40:20.620Z,10.13
2017-11-24T16:42:48.727Z,10.43
2017-11-24T16:45:17.285Z,11.00
2017-11-24T16:47:44.892Z,13.07
2017-11-24T16:50:13.593Z,9.63
2017-11-24T16:52:41.180Z,9.23
2017-11-24T16:55:08.781Z,10.40
2017-11-24T16:57:36.477Z,12.00
2017-11-24T17:00:04.925Z,11.50
2017-11-24T17:02:32.584Z,7.40
2017-11-24T17:05:00.143Z,7.50
2017-11-24T17:07:27.994Z,7.23
2017-11-24T17:09:56.162Z,9.73
2017-11-24T17:12:24.126Z,9.27
2017-11-24T17:14:51.760Z,9.87
2017-11-24T17:17:19.358Z,10.60
2017-11-24T17:19:48.340Z,11.03
2017-11-24T17:22:16.103Z,11.30
2017-11-24T17:24:43.773Z,9.10
2017-11-24T17:27:11.429Z,10.30
2017-11-24T17:29:39.057Z,9.53
2017-11-24T17:32:07.607Z,9.27
2017-11-24T17:34:35.234Z,8.93
2017-11-24T17:37:02.825Z,12.27
2017-11-24T17:39:30.445Z,16.33
2017-11-24T17:41:58.017Z,13.77
2017-11-24T17:44:25.609Z,11.77
2017-11-24T17:46:53.252Z,18.83
2017-11-24T17:49:21.041Z,11.47
2017-11-24T17:51:48.609Z,10.67
2017-11-24T17:54:18.064Z,20.43
2017-11-24T17:56:48.225Z,8.37
2017-11-24T17:59:15.885Z,9.27
2017-11-24T18:01:44.758Z,14.70
2017-11-24T18:04:12.411Z,8.93
2017-11-24T18:06:40.902Z,8.60
2017-11-24T18:09:08.880Z,9.03
2017-11-24T18:11:36.521Z,10.30
2017-11-24T18:14:04.388Z,16.93
2017-11-24T18:16:33.332Z,13.77
2017-11-24T18:19:01.798Z,14.43
2017-11-24T18:21:29.888Z,15.53
2017-11-24T18:23:58.082Z,11.50
2017-11-24T18:26:25.921Z,10.33
2017-11-24T18:28:54.699Z,12.27
2017-11-24T18:31:23.239Z,12.33
2017-11-24T18:33:50.861Z,9.40
2017-11-24T18:36:18.513Z,13.87
2017-11-24T18:38:46.948Z,13.03
2017-11-24T18:41:14.544Z,19.33
2017-11-24T18:43:42.145Z,11.70
2017-11-24T18:46:09.703Z,15.53
2017-11-24T18:48:37.417Z,10.67
2017-11-24T18:51:05.159Z,29.03
2017-11-24T18:53:33.511Z,20.87
2017-11-24T18:56:01.122Z,12.03
2017-11-24T18:58:28.792Z,14.23
2017-11-24T19:00:57.855Z,16.20
2017-11-24T19:03:25.516Z,11.43
2017-11-24T19:05:53.908Z,14.20
2017-11-24T19:08:21.696Z,19.73
2017-11-24T19:10:49.368Z,17.40
2017-11-24T19:13:17.286Z,19.33
2017-11-24T19:15:44.885Z,17.17
2017-11-24T19:18:13.432Z,18.47
2017-11-24T19:20:41.016Z,16.67
2017-11-24T19:23:08.628Z,32.17
2017-11-24T19:25:36.622Z,51.30
2017-11-24T19:28:04.254Z,15.40
2017-11-24T19:30:33.435Z,13.43
2017-11-24T19:33:01.016Z,16.20
2017-11-24T19:35:29.356Z,16.20
2017-11-24T19:37:57.194Z,13.77
2017-11-24T19:40:24.852Z,14.97
2017-11-24T19:42:53.760Z,16.87
2017-11-24T19:45:21.385Z,14.77
2017-11-24T19:47:49.056Z,15.63
2017-11-24T19:50:17.023Z,14.63
2017-11-24T19:52:44.589Z,16.53
2017-11-24T19:55:12.173Z,17.40
2017-11-24T19:57:39.776Z,20.77
2017-11-24T20:00:07.594Z,15.53
2017-11-24T20:02:38.060Z,15.97
2017-11-24T20:05:06.046Z,15.73
2017-11-24T20:07:34.667Z,16.13
2017-11-24T20:10:02.747Z,19.40
2017-11-24T20:12:32.348Z,18.90
2017-11-24T20:15:00.190Z,22.47
2017-11-24T20:17:28.057Z,21.90
2017-11-24T20:19:56.357Z,22.83
2017-11-24T20:22:24.206Z,18.50
2017-11-24T20:24:52.194Z,20.07
2017-11-24T20:27:21.349Z,19.07
2017-11-24T20:29:49.013Z,22.83
2017-11-24T20:32:17.380Z,57.67
2017-11-24T20:34:45.717Z,15.80
2017-11-24T20:37:13.339Z,24.63
2017-11-24T20:39:41.699Z,24.37
2017-11-24T20:42:10.099Z,19.00
2017-11-24T20:44:38.443Z,19.23
2017-11-24T20:47:06.124Z,16.20
2017-11-24T20:49:33.886Z,17.50
2017-11-24T20:52:01.664Z,19.47
2017-11-24T20:54:29.992Z,23.37
2017-11-24T20:56:57.620Z,20.97
2017-11-24T20:59:25.398Z,21.37
2017-11-24T21:01:53.006Z,25.93
2017-11-24T21:04:20.629Z,25.20
2017-11-24T21:06:48.273Z,24.67
2017-11-24T21:09:16.330Z,21.43
2017-11-24T21:11:44.034Z,24.57
2017-11-24T21:14:11.618Z,21.37
2017-11-24T21:16:39.204Z,19.40
2017-11-24T21:19:07.582Z,26.20
2017-11-24T21:21:35.342Z,32.07
2017-11-24T21:24:03.830Z,22.93
2017-11-24T21:26:32.200Z,23.17
2017-11-24T21:29:00.421Z,21.07
2017-11-24T21:31:28.785Z,30.27
2017-11-24T21:33:56.972Z,31.07
2017-11-24T21:36:24.600Z,22.70
2017-11-24T21:38:52.511Z,24.03
2017-11-24T21:41:20.174Z,24.33
2017-11-24T21:43:48.756Z,22.40
2017-11-24T21:46:16.415Z,24.73
2017-11-24T21:48:43.999Z,20.83
2017-11-24T21:51:11.779Z,22.80
2017-11-24T21:53:39.509Z,24.77
2017-11-24T21:56:07.337Z,26.57
2017-11-24T21:58:36.165Z,23.70
2017-11-24T22:01:04.647Z,22.97
2017-11-24T22:03:32.515Z,20.73
2017-11-24T22:06:00.593Z,20.03
2017-11-24T22:08:30.093Z,21.73
2017-11-24T22:10:58.389Z,17.23
2017-11-24T22:13:26.483Z,17.77
2017-11-24T22:15:54.165Z,29.20
2017-11-24T22:18:22.548Z,21.10
2017-11-24T22:20:51.082Z,19.87
2017-11-24T22:23:18.742Z,17.97
2017-11-24T22:25:46.904Z,17.37
2017-11-24T22:28:14.516Z,30.17
2017-11-24T22:30:42.135Z,19.87
2017-11-24T22:33:09.925Z,18.53
2017-11-24T22:35:37.761Z,18.07
2017-11-24T22:38:05.440Z,42.57
2017-11-24T22:40:33.376Z,30.30
2017-11-24T22:43:00.965Z,29.33
2017-11-24T22:45:28.549Z,21.23
2017-11-24T22:47:56.936Z,19.47
2017-11-24T22:50:24.856Z,19.97
2017-11-24T22:52:52.957Z,26.33
2017-11-24T22:55:24.977Z,30.60
2017-11-24T22:57:53.711Z,26.87
2017-11-24T23:00:21.767Z,17.90
2017-11-24T23:02:50.205Z,18.33
2017-11-24T23:05:17.795Z,19.00
2017-11-24T23:07:45.857Z,23.93
2017-11-24T23:10:14.581Z,26.67
2017-11-24T23:12:42.453Z,20.77
2017-11-24T23:15:10.272Z,22.00
2017-11-24T23:17:38.374Z,31.00
2017-11-24T23:20:06.957Z,32.57
2017-11-24T23:22:34.722Z,26.70
2017-11-24T23:25:02.488Z,25.67
2017-11-24T23:27:30.791Z,21.70
2017-11-24T23:29:59.264Z,28.67
2017-11-24T23:32:26.855Z,24.73
2017-11-24T23:34:54.575Z,24.47
2017-11-24T23:37:23.534Z,22.27
2017-11-24T23:39:51.227Z,24.57
2017-11-24T23:42:18.991Z,29.53
2017-11-24T23:44:46.751Z,26.13
2017-11-24T23:47:15.647Z,25.47
2017-11-24T23:49:44.559Z,23.07
2017-11-24T23:52:12.304Z,27.70
2017-11-24T23:54:41.466Z,28.23
2017-11-24T23:57:09.281Z,24.57
2017-11-24T23:59:36.942Z,22.00
